sensor_id;sensor_type;location;lat;lon;timestamp;temperature;humidity
4820;DHT22;2424;49.696;6.630;2024-02-21T00:01:29;7.40;99.90
4820;DHT22;2424;49.696;6.630;2024-02-21T00:06:51;7.40;99.90
4820;DHT22;2424;49.696;6.630;2024-02-21T00:12:13;7.40;99.90
4820;DHT22;2424;49.696;6.630;2024-02-21T00:17:36;7.40;99.90
4820;DHT22;2424;49.696;6.630;2024-02-21T00:22:58;7.40;99.90
4820;DHT22;2424;49.696;6.630;2024-02-21T00:28:20;7.40;99.90
4820;DHT22;2424;49.696;6.630;2024-02-21T00:33:44;7.30;99.90
4820;DHT22;2424;49.696;6.630;2024-02-21T00:39:06;7.30;99.90
4820;DHT22;2424;49.696;6.630;2024-02-21T00:44:27;7.30;99.90
4820;DHT22;2424;49.696;6.630;2024-02-21T00:49:51;7.30;99.90
4820;DHT22;2424;49.696;6.630;2024-02-21T00:55:13;7.30;99.90
4820;DHT22;2424;49.696;6.630;2024-02-21T01:00:35;7.30;99.90
4820;DHT22;2424;49.696;6.630;2024-02-21T01:05:58;7.30;99.90
4820;DHT22;2424;49.696;6.630;2024-02-21T01:11:20;7.30;99.90
4820;DHT22;2424;49.696;6.630;2024-02-21T01:16:42;7.30;99.90
4820;DHT22;2424;49.696;6.630;2024-02-21T01:22:05;7.30;99.90
4820;DHT22;2424;49.696;6.630;2024-02-21T01:27:27;7.30;99.90
4820;DHT22;2424;49.696;6.630;2024-02-21T01:32:49;7.20;99.90
4820;DHT22;2424;49.696;6.630;2024-02-21T01:38:13;7.20;99.90
4820;DHT22;2424;49.696;6.630;2024-02-21T01:43:35;7.20;99.90
4820;DHT22;2424;49.696;6.630;2024-02-21T01:48:57;7.20;99.90
4820;DHT22;2424;49.696;6.630;2024-02-21T01:54:21;7.20;99.90
4820;DHT22;2424;49.696;6.630;2024-02-21T01:59:43;7.20;99.90
4820;DHT22;2424;49.696;6.630;2024-02-21T02:05:06;7.20;99.90
4820;DHT22;2424;49.696;6.630;2024-02-21T02:10:30;7.20;99.90
4820;DHT22;2424;49.696;6.630;2024-02-21T02:15:52;7.20;99.90
4820;DHT22;2424;49.696;6.630;2024-02-21T02:21:23;7.20;99.90
4820;DHT22;2424;49.696;6.630;2024-02-21T02:26:49;7.20;99.90
4820;DHT22;2424;49.696;6.630;2024-02-21T02:32:11;7.20;99.90
4820;DHT22;2424;49.696;6.630;2024-02-21T02:37:33;7.20;99.90
4820;DHT22;2424;49.696;6.630;2024-02-21T02:42:56;7.20;99.90
4820;DHT22;2424;49.696;6.630;2024-02-21T02:48:18;7.20;99.90
4820;DHT22;2424;49.696;6.630;2024-02-21T02:53:40;7.20;99.90
4820;DHT22;2424;49.696;6.630;2024-02-21T02:59:04;7.10;99.90
4820;DHT22;2424;49.696;6.630;2024-02-21T03:04:25;7.10;99.90
4820;DHT22;2424;49.696;6.630;2024-02-21T03:09:47;7.10;99.90
4820;DHT22;2424;49.696;6.630;2024-02-21T03:15:12;7.10;99.90
4820;DHT22;2424;49.696;6.630;2024-02-21T03:20:34;7.10;99.90
4820;DHT22;2424;49.696;6.630;2024-02-21T03:25:56;7.10;99.90
4820;DHT22;2424;49.696;6.630;2024-02-21T03:31:19;7.00;99.90
4820;DHT22;2424;49.696;6.630;2024-02-21T03:36:41;7.00;99.90
4820;DHT22;2424;49.696;6.630;2024-02-21T03:42:04;7.00;99.90
4820;DHT22;2424;49.696;6.630;2024-02-21T03:47:28;7.00;99.90
4820;DHT22;2424;49.696;6.630;2024-02-21T03:52:49;7.00;99.90
4820;DHT22;2424;49.696;6.630;2024-02-21T03:58:11;7.00;99.90
4820;DHT22;2424;49.696;6.630;2024-02-21T04:03:35;7.00;99.90
4820;DHT22;2424;49.696;6.630;2024-02-21T04:08:57;6.90;99.90
4820;DHT22;2424;49.696;6.630;2024-02-21T04:14:19;7.00;99.90
4820;DHT22;2424;49.696;6.630;2024-02-21T04:19:42;6.90;99.90
4820;DHT22;2424;49.696;6.630;2024-02-21T04:25:05;6.90;99.90
4820;DHT22;2424;49.696;6.630;2024-02-21T04:30:27;6.90;99.90
4820;DHT22;2424;49.696;6.630;2024-02-21T04:35:50;6.90;99.90
4820;DHT22;2424;49.696;6.630;2024-02-21T04:41:12;6.80;99.90
4820;DHT22;2424;49.696;6.630;2024-02-21T04:46:34;6.90;99.90
4820;DHT22;2424;49.696;6.630;2024-02-21T04:51:57;6.80;99.90
4820;DHT22;2424;49.696;6.630;2024-02-21T04:57:19;6.80;99.90
4820;DHT22;2424;49.696;6.630;2024-02-21T05:02:41;6.80;99.90
4820;DHT22;2424;49.696;6.630;2024-02-21T05:08:05;6.80;99.90
4820;DHT22;2424;49.696;6.630;2024-02-21T05:13:27;6.80;99.90
4820;DHT22;2424;49.696;6.630;2024-02-21T05:18:51;6.80;99.90
4820;DHT22;2424;49.696;6.630;2024-02-21T05:24:15;6.80;99.90
4820;DHT22;2424;49.696;6.630;2024-02-21T05:29:37;6.80;99.90
4820;DHT22;2424;49.696;6.630;2024-02-21T05:34:59;6.80;99.90
4820;DHT22;2424;49.696;6.630;2024-02-21T05:40:22;6.80;99.90
4820;DHT22;2424;49.696;6.630;2024-02-21T05:45:44;6.80;99.90
4820;DHT22;2424;49.696;6.630;2024-02-21T05:51:06;6.80;99.90
4820;DHT22;2424;49.696;6.630;2024-02-21T05:56:29;6.80;99.90
4820;DHT22;2424;49.696;6.630;2024-02-21T06:01:55;6.80;99.90
4820;DHT22;2424;49.696;6.630;2024-02-21T06:07:18;6.70;99.90
4820;DHT22;2424;49.696;6.630;2024-02-21T06:12:41;6.70;99.90
4820;DHT22;2424;49.696;6.630;2024-02-21T06:18:03;6.70;99.90
4820;DHT22;2424;49.696;6.630;2024-02-21T06:23:25;6.70;99.90
4820;DHT22;2424;49.696;6.630;2024-02-21T06:28:49;6.70;99.90
4820;DHT22;2424;49.696;6.630;2024-02-21T06:34:11;6.70;99.90
4820;DHT22;2424;49.696;6.630;2024-02-21T06:39:33;6.70;99.90
4820;DHT22;2424;49.696;6.630;2024-02-21T06:44:56;6.70;99.90
4820;DHT22;2424;49.696;6.630;2024-02-21T06:50:18;6.60;99.90
4820;DHT22;2424;49.696;6.630;2024-02-21T06:55:40;6.60;99.90
4820;DHT22;2424;49.696;6.630;2024-02-21T07:01:03;6.60;99.90
4820;DHT22;2424;49.696;6.630;2024-02-21T07:06:25;6.60;99.90
4820;DHT22;2424;49.696;6.630;2024-02-21T07:11:47;6.60;99.90
4820;DHT22;2424;49.696;6.630;2024-02-21T07:17:10;6.60;99.90
4820;DHT22;2424;49.696;6.630;2024-02-21T07:22:32;6.60;99.90
4820;DHT22;2424;49.696;6.630;2024-02-21T07:27:54;6.60;99.90
4820;DHT22;2424;49.696;6.630;2024-02-21T07:33:17;6.60;99.90
4820;DHT22;2424;49.696;6.630;2024-02-21T07:38:41;6.60;99.90
4820;DHT22;2424;49.696;6.630;2024-02-21T07:44:03;6.60;99.90
4820;DHT22;2424;49.696;6.630;2024-02-21T07:49:27;6.60;99.90
4820;DHT22;2424;49.696;6.630;2024-02-21T07:54:48;6.70;99.90
4820;DHT22;2424;49.696;6.630;2024-02-21T08:00:11;6.60;99.90
4820;DHT22;2424;49.696;6.630;2024-02-21T08:05:41;6.70;99.90
4820;DHT22;2424;49.696;6.630;2024-02-21T08:11:03;6.70;99.90
4820;DHT22;2424;49.696;6.630;2024-02-21T08:16:26;6.70;99.90
4820;DHT22;2424;49.696;6.630;2024-02-21T08:21:50;6.80;99.90
4820;DHT22;2424;49.696;6.630;2024-02-21T08:27:12;6.80;99.90
4820;DHT22;2424;49.696;6.630;2024-02-21T08:32:33;6.90;99.90
4820;DHT22;2424;49.696;6.630;2024-02-21T08:37:57;6.90;99.90
4820;DHT22;2424;49.696;6.630;2024-02-21T08:43:19;7.00;99.90
4820;DHT22;2424;49.696;6.630;2024-02-21T08:48:41;7.00;99.90
4820;DHT22;2424;49.696;6.630;2024-02-21T08:54:05;7.10;99.90
4820;DHT22;2424;49.696;6.630;2024-02-21T08:59:26;7.10;99.90
4820;DHT22;2424;49.696;6.630;2024-02-21T09:04:48;7.20;99.90
4820;DHT22;2424;49.696;6.630;2024-02-21T09:10:12;7.20;99.90
4820;DHT22;2424;49.696;6.630;2024-02-21T09:15:34;7.30;99.90
4820;DHT22;2424;49.696;6.630;2024-02-21T09:20:56;7.30;99.90
4820;DHT22;2424;49.696;6.630;2024-02-21T09:26:19;7.40;99.90
4820;DHT22;2424;49.696;6.630;2024-02-21T09:31:41;7.40;99.90
4820;DHT22;2424;49.696;6.630;2024-02-21T09:37:03;7.50;99.90
4820;DHT22;2424;49.696;6.630;2024-02-21T09:42:34;7.40;99.90
4820;DHT22;2424;49.696;6.630;2024-02-21T09:48:14;7.50;99.90
4820;DHT22;2424;49.696;6.630;2024-02-21T09:53:38;7.50;99.90
4820;DHT22;2424;49.696;6.630;2024-02-21T09:59:03;7.50;99.90
4820;DHT22;2424;49.696;6.630;2024-02-21T10:04:25;7.60;99.90
4820;DHT22;2424;49.696;6.630;2024-02-21T10:09:47;7.60;99.90
4820;DHT22;2424;49.696;6.630;2024-02-21T10:15:11;7.70;99.90
4820;DHT22;2424;49.696;6.630;2024-02-21T10:20:33;7.70;99.90
4820;DHT22;2424;49.696;6.630;2024-02-21T10:26:05;7.70;99.90
4820;DHT22;2424;49.696;6.630;2024-02-21T10:31:28;7.70;99.90
4820;DHT22;2424;49.696;6.630;2024-02-21T10:37:00;7.80;99.90
4820;DHT22;2424;49.696;6.630;2024-02-21T10:42:22;7.80;99.90
4820;DHT22;2424;49.696;6.630;2024-02-21T10:47:48;7.80;99.90
4820;DHT22;2424;49.696;6.630;2024-02-21T10:53:20;7.80;99.90
4820;DHT22;2424;49.696;6.630;2024-02-21T10:58:46;7.80;99.90
4820;DHT22;2424;49.696;6.630;2024-02-21T11:04:10;8.00;99.90
4820;DHT22;2424;49.696;6.630;2024-02-21T11:09:33;8.00;99.90
4820;DHT22;2424;49.696;6.630;2024-02-21T11:15:04;8.10;99.90
4820;DHT22;2424;49.696;6.630;2024-02-21T11:20:33;8.00;99.90
4820;DHT22;2424;49.696;6.630;2024-02-21T11:26:04;8.10;99.90
4820;DHT22;2424;49.696;6.630;2024-02-21T11:31:26;8.20;99.90
4820;DHT22;2424;49.696;6.630;2024-02-21T11:36:51;8.20;99.90
4820;DHT22;2424;49.696;6.630;2024-02-21T11:42:13;8.30;99.90
4820;DHT22;2424;49.696;6.630;2024-02-21T11:47:35;8.20;99.90
4820;DHT22;2424;49.696;6.630;2024-02-21T11:53:00;8.40;99.90
4820;DHT22;2424;49.696;6.630;2024-02-21T11:58:23;8.30;99.90
4820;DHT22;2424;49.696;6.630;2024-02-21T12:03:45;8.40;99.90
4820;DHT22;2424;49.696;6.630;2024-02-21T12:09:14;8.30;99.90
4820;DHT22;2424;49.696;6.630;2024-02-21T12:14:35;8.30;99.90
4820;DHT22;2424;49.696;6.630;2024-02-21T12:19:58;8.50;99.90
4820;DHT22;2424;49.696;6.630;2024-02-21T12:25:23;8.50;99.90
4820;DHT22;2424;49.696;6.630;2024-02-21T12:30:47;8.50;99.90
4820;DHT22;2424;49.696;6.630;2024-02-21T12:36:09;8.50;99.90
4820;DHT22;2424;49.696;6.630;2024-02-21T12:41:32;8.70;99.90
4820;DHT22;2424;49.696;6.630;2024-02-21T12:46:56;8.70;99.90
4820;DHT22;2424;49.696;6.630;2024-02-21T12:52:18;8.60;99.90
4820;DHT22;2424;49.696;6.630;2024-02-21T12:57:41;8.70;99.90
4820;DHT22;2424;49.696;6.630;2024-02-21T13:03:04;8.70;99.90
4820;DHT22;2424;49.696;6.630;2024-02-21T13:08:26;8.70;99.90
4820;DHT22;2424;49.696;6.630;2024-02-21T13:13:49;8.80;99.90
4820;DHT22;2424;49.696;6.630;2024-02-21T13:19:11;9.00;99.90
4820;DHT22;2424;49.696;6.630;2024-02-21T13:24:34;9.00;99.90
4820;DHT22;2424;49.696;6.630;2024-02-21T13:29:57;9.00;99.90
4820;DHT22;2424;49.696;6.630;2024-02-21T13:35:21;9.10;99.90
4820;DHT22;2424;49.696;6.630;2024-02-21T13:40:42;9.00;99.90
4820;DHT22;2424;49.696;6.630;2024-02-21T13:46:06;9.00;99.90
4820;DHT22;2424;49.696;6.630;2024-02-21T13:51:30;9.00;99.90
4820;DHT22;2424;49.696;6.630;2024-02-21T13:56:52;9.10;99.90
4820;DHT22;2424;49.696;6.630;2024-02-21T14:02:15;9.00;99.90
4820;DHT22;2424;49.696;6.630;2024-02-21T14:07:38;9.00;99.90
4820;DHT22;2424;49.696;6.630;2024-02-21T14:13:00;9.10;99.90
4820;DHT22;2424;49.696;6.630;2024-02-21T14:18:23;9.10;99.90
4820;DHT22;2424;49.696;6.630;2024-02-21T14:23:45;9.10;99.90
4820;DHT22;2424;49.696;6.630;2024-02-21T14:29:07;9.00;99.90
4820;DHT22;2424;49.696;6.630;2024-02-21T14:34:30;9.00;99.90
4820;DHT22;2424;49.696;6.630;2024-02-21T14:39:52;9.00;99.90
4820;DHT22;2424;49.696;6.630;2024-02-21T14:45:14;9.00;99.90
4820;DHT22;2424;49.696;6.630;2024-02-21T14:50:37;9.00;99.90
4820;DHT22;2424;49.696;6.630;2024-02-21T14:55:59;8.90;99.90
4820;DHT22;2424;49.696;6.630;2024-02-21T15:01:21;8.90;99.90
4820;DHT22;2424;49.696;6.630;2024-02-21T15:06:44;8.90;99.90
4820;DHT22;2424;49.696;6.630;2024-02-21T15:12:07;8.90;99.90
4820;DHT22;2424;49.696;6.630;2024-02-21T15:17:29;8.90;99.90
4820;DHT22;2424;49.696;6.630;2024-02-21T15:22:52;8.90;99.90
4820;DHT22;2424;49.696;6.630;2024-02-21T15:28:14;8.90;99.90
4820;DHT22;2424;49.696;6.630;2024-02-21T15:33:36;8.90;99.90
4820;DHT22;2424;49.696;6.630;2024-02-21T15:38:59;8.90;99.90
4820;DHT22;2424;49.696;6.630;2024-02-21T15:44:23;8.90;99.90
4820;DHT22;2424;49.696;6.630;2024-02-21T15:49:45;8.90;99.90
4820;DHT22;2424;49.696;6.630;2024-02-21T15:55:09;8.90;99.90
4820;DHT22;2424;49.696;6.630;2024-02-21T16:00:32;8.90;99.90
4820;DHT22;2424;49.696;6.630;2024-02-21T16:05:54;8.90;99.90
4820;DHT22;2424;49.696;6.630;2024-02-21T16:11:18;8.90;99.90
4820;DHT22;2424;49.696;6.630;2024-02-21T16:16:40;8.90;99.90
4820;DHT22;2424;49.696;6.630;2024-02-21T16:22:03;8.80;99.90
4820;DHT22;2424;49.696;6.630;2024-02-21T16:27:27;8.80;99.90
4820;DHT22;2424;49.696;6.630;2024-02-21T16:32:50;8.80;99.90
4820;DHT22;2424;49.696;6.630;2024-02-21T16:38:12;8.80;99.90
4820;DHT22;2424;49.696;6.630;2024-02-21T16:43:36;8.80;99.90
4820;DHT22;2424;49.696;6.630;2024-02-21T16:48:58;8.80;99.90
4820;DHT22;2424;49.696;6.630;2024-02-21T16:54:24;8.80;99.90
4820;DHT22;2424;49.696;6.630;2024-02-21T16:59:48;8.80;99.90
4820;DHT22;2424;49.696;6.630;2024-02-21T17:05:10;8.90;99.90
4820;DHT22;2424;49.696;6.630;2024-02-21T17:10:33;9.00;99.90
4820;DHT22;2424;49.696;6.630;2024-02-21T17:15:56;9.00;99.90
4820;DHT22;2424;49.696;6.630;2024-02-21T17:21:18;9.00;99.90
4820;DHT22;2424;49.696;6.630;2024-02-21T17:26:40;8.90;99.90
4820;DHT22;2424;49.696;6.630;2024-02-21T17:32:04;8.90;99.90
4820;DHT22;2424;49.696;6.630;2024-02-21T17:37:28;9.00;99.90
4820;DHT22;2424;49.696;6.630;2024-02-21T17:42:50;9.00;99.90
4820;DHT22;2424;49.696;6.630;2024-02-21T17:48:13;9.00;99.90
4820;DHT22;2424;49.696;6.630;2024-02-21T17:53:35;8.90;99.90
4820;DHT22;2424;49.696;6.630;2024-02-21T17:58:57;8.80;99.90
4820;DHT22;2424;49.696;6.630;2024-02-21T18:04:20;8.80;99.90
4820;DHT22;2424;49.696;6.630;2024-02-21T18:09:43;8.80;99.90
4820;DHT22;2424;49.696;6.630;2024-02-21T18:15:07;8.80;99.90
4820;DHT22;2424;49.696;6.630;2024-02-21T18:20:32;8.70;99.90
4820;DHT22;2424;49.696;6.630;2024-02-21T18:25:54;8.70;99.90
4820;DHT22;2424;49.696;6.630;2024-02-21T18:31:16;8.60;99.90
4820;DHT22;2424;49.696;6.630;2024-02-21T18:36:40;8.50;99.90
4820;DHT22;2424;49.696;6.630;2024-02-21T18:42:02;8.40;99.90
4820;DHT22;2424;49.696;6.630;2024-02-21T18:47:24;8.30;99.90
4820;DHT22;2424;49.696;6.630;2024-02-21T18:52:47;8.20;99.90
4820;DHT22;2424;49.696;6.630;2024-02-21T18:58:12;8.10;99.90
4820;DHT22;2424;49.696;6.630;2024-02-21T19:03:34;8.10;99.90
4820;DHT22;2424;49.696;6.630;2024-02-21T19:08:57;8.10;99.90
4820;DHT22;2424;49.696;6.630;2024-02-21T19:14:19;8.10;99.90
4820;DHT22;2424;49.696;6.630;2024-02-21T19:19:41;8.10;99.90
4820;DHT22;2424;49.696;6.630;2024-02-21T19:25:08;8.10;99.90
4820;DHT22;2424;49.696;6.630;2024-02-21T19:30:34;8.10;99.90
4820;DHT22;2424;49.696;6.630;2024-02-21T19:35:56;8.00;99.90
4820;DHT22;2424;49.696;6.630;2024-02-21T19:41:19;7.90;99.90
4820;DHT22;2424;49.696;6.630;2024-02-21T19:46:41;7.80;99.90
4820;DHT22;2424;49.696;6.630;2024-02-21T19:52:03;7.80;99.90
4820;DHT22;2424;49.696;6.630;2024-02-21T19:57:26;7.80;99.90
4820;DHT22;2424;49.696;6.630;2024-02-21T20:02:49;7.70;99.90
4820;DHT22;2424;49.696;6.630;2024-02-21T20:08:13;7.60;99.90
4820;DHT22;2424;49.696;6.630;2024-02-21T20:13:38;7.60;99.90
4820;DHT22;2424;49.696;6.630;2024-02-21T20:19:01;7.60;99.90
4820;DHT22;2424;49.696;6.630;2024-02-21T20:24:23;7.40;99.90
4820;DHT22;2424;49.696;6.630;2024-02-21T20:29:47;7.40;99.90
4820;DHT22;2424;49.696;6.630;2024-02-21T20:35:09;7.40;99.90
4820;DHT22;2424;49.696;6.630;2024-02-21T20:40:31;7.40;99.90
4820;DHT22;2424;49.696;6.630;2024-02-21T20:45:55;7.40;99.90
4820;DHT22;2424;49.696;6.630;2024-02-21T20:51:17;7.40;99.90
4820;DHT22;2424;49.696;6.630;2024-02-21T20:56:38;7.40;99.90
4820;DHT22;2424;49.696;6.630;2024-02-21T21:02:02;7.40;99.90
4820;DHT22;2424;49.696;6.630;2024-02-21T21:07:24;7.40;99.90
4820;DHT22;2424;49.696;6.630;2024-02-21T21:12:46;7.40;99.90
4820;DHT22;2424;49.696;6.630;2024-02-21T21:18:09;7.40;99.90
4820;DHT22;2424;49.696;6.630;2024-02-21T21:23:31;7.40;99.90
4820;DHT22;2424;49.696;6.630;2024-02-21T21:28:53;7.40;99.90
4820;DHT22;2424;49.696;6.630;2024-02-21T21:34:18;7.40;99.90
4820;DHT22;2424;49.696;6.630;2024-02-21T21:39:40;7.50;99.90
4820;DHT22;2424;49.696;6.630;2024-02-21T21:45:09;7.50;99.90
4820;DHT22;2424;49.696;6.630;2024-02-21T21:50:32;7.50;99.90
4820;DHT22;2424;49.696;6.630;2024-02-21T21:55:56;7.50;99.90
4820;DHT22;2424;49.696;6.630;2024-02-21T22:01:18;7.50;99.90
4820;DHT22;2424;49.696;6.630;2024-02-21T22:06:41;7.60;99.90
4820;DHT22;2424;49.696;6.630;2024-02-21T22:12:03;7.60;99.90
4820;DHT22;2424;49.696;6.630;2024-02-21T22:17:25;7.60;99.90
4820;DHT22;2424;49.696;6.630;2024-02-21T22:22:49;7.60;99.90
4820;DHT22;2424;49.696;6.630;2024-02-21T22:28:11;7.60;99.90
4820;DHT22;2424;49.696;6.630;2024-02-21T22:33:33;7.70;99.90
4820;DHT22;2424;49.696;6.630;2024-02-21T22:38:56;7.70;99.90
4820;DHT22;2424;49.696;6.630;2024-02-21T22:44:18;7.70;99.90
4820;DHT22;2424;49.696;6.630;2024-02-21T22:49:40;7.70;99.90
4820;DHT22;2424;49.696;6.630;2024-02-21T22:55:03;7.70;99.90
4820;DHT22;2424;49.696;6.630;2024-02-21T23:00:26;7.70;99.90
4820;DHT22;2424;49.696;6.630;2024-02-21T23:05:48;7.80;99.90
4820;DHT22;2424;49.696;6.630;2024-02-21T23:11:11;7.70;99.90
4820;DHT22;2424;49.696;6.630;2024-02-21T23:16:33;7.80;99.90
4820;DHT22;2424;49.696;6.630;2024-02-21T23:21:55;7.80;99.90
4820;DHT22;2424;49.696;6.630;2024-02-21T23:27:19;7.80;99.90
4820;DHT22;2424;49.696;6.630;2024-02-21T23:32:41;7.70;99.90
4820;DHT22;2424;49.696;6.630;2024-02-21T23:38:04;7.80;99.90
4820;DHT22;2424;49.696;6.630;2024-02-21T23:43:30;7.80;99.90
4820;DHT22;2424;49.696;6.630;2024-02-21T23:48:58;7.80;99.90
4820;DHT22;2424;49.696;6.630;2024-02-21T23:54:21;7.80;99.90
4820;DHT22;2424;49.696;6.630;2024-02-21T23:59:45;7.80;99.90
